Time;durP1;ratioP1;P1;durP2;ratioP2;P2;SDS_P1;SDS_P2;PMS_P1;PMS_P2;Temp;Humidity;BMP_temperature;BMP_pressure;BME280_temperature;BME280_humidity;BME280_pressure;Samples;Min_cycle;Max_cycle;Signal;HPM_P1;HPM_P2
2023/02/27 00:01:32;;;;;;;7.30;2.67;;;;;;;-1.99;97.66;102141.94;4974663;28;20477;-67
2023/02/27 00:03:59;;;;;;;11.10;3.33;;;;;;;-1.97;97.67;102139.94;4975177;28;20465;-67
2023/02/27 00:06:26;;;;;;;9.27;2.93;;;;;;;-2.07;97.69;102138.38;4974991;28;20446;-67
2023/02/27 00:08:53;;;;;;;9.67;3.63;;;;;;;-2.11;97.42;102138.91;4974833;28;20445;-69
2023/02/27 00:11:21;;;;;;;11.30;3.53;;;;;;;-2.05;97.73;102138.19;4973801;28;21029;-67
2023/02/27 00:13:48;;;;;;;9.23;2.40;;;;;;;-2.01;97.50;102136.00;4974748;28;20460;-67
2023/02/27 00:16:14;;;;;;;10.03;3.20;;;;;;;-2.09;97.33;102137.69;4974674;28;20450;-68
2023/02/27 00:18:41;;;;;;;12.20;3.47;;;;;;;-2.13;98.32;102138.25;4975081;28;20452;-68
2023/02/27 00:21:08;;;;;;;9.83;3.30;;;;;;;-2.09;98.71;102131.56;4974639;28;20473;-67
2023/02/27 00:23:34;;;;;;;10.20;3.80;;;;;;;-2.08;98.49;102128.75;4974455;28;20947;-68
2023/02/27 00:26:01;;;;;;;8.83;4.00;;;;;;;-1.92;96.93;102133.09;4974714;28;20452;-67
2023/02/27 00:28:29;;;;;;;10.37;3.77;;;;;;;-1.85;96.33;102136.69;4974446;28;20450;-67
2023/02/27 00:30:56;;;;;;;12.33;3.43;;;;;;;-1.80;95.52;102136.97;4974365;28;20580;-68
2023/02/27 00:33:22;;;;;;;18.00;3.40;;;;;;;-1.90;93.69;102136.41;4974614;28;20474;-68
2023/02/27 00:35:55;;;;;;;7.20;2.90;;;;;;;-1.93;93.42;102136.75;4974665;28;20473;-67
2023/02/27 00:38:21;;;;;;;13.67;2.90;;;;;;;-1.96;92.44;102134.44;4974563;28;20863;-68
2023/02/27 00:40:48;;;;;;;9.87;3.63;;;;;;;-2.16;93.62;102135.97;4974263;28;20449;-68
2023/02/27 00:43:15;;;;;;;9.73;3.70;;;;;;;-2.17;93.30;102132.50;4974565;28;20883;-68
2023/02/27 00:45:43;;;;;;;12.73;3.83;;;;;;;-2.19;93.00;102133.66;4974465;28;20441;-68
2023/02/27 00:48:09;;;;;;;8.73;3.10;;;;;;;-2.31;93.74;102130.59;4974495;28;20532;-68
2023/02/27 00:50:36;;;;;;;13.20;3.67;;;;;;;-2.49;94.59;102135.38;4974581;28;20537;-68
2023/02/27 00:53:02;;;;;;;7.10;3.10;;;;;;;-2.62;95.21;102131.47;4974388;28;20449;-69
2023/02/27 00:55:30;;;;;;;10.10;4.00;;;;;;;-2.69;96.96;102135.00;4974241;28;20504;-69
2023/02/27 00:57:57;;;;;;;7.20;2.73;;;;;;;-2.65;96.93;102125.69;4974293;28;20540;-68
2023/02/27 01:00:24;;;;;;;12.97;3.70;;;;;;;-2.57;96.30;102123.81;4974080;28;20560;-69
2023/02/27 01:02:52;;;;;;;17.13;4.27;;;;;;;-2.52;96.56;102131.25;4973930;28;20505;-69
2023/02/27 01:05:18;;;;;;;13.27;3.80;;;;;;;-2.61;95.85;102127.00;4974183;28;20441;-69
2023/02/27 01:07:45;;;;;;;17.23;3.93;;;;;;;-2.60;95.65;102120.69;4973827;28;20529;-69
2023/02/27 01:10:12;;;;;;;8.17;2.80;;;;;;;-2.46;94.83;102113.78;4974193;28;20822;-69
2023/02/27 01:12:39;;;;;;;8.70;3.10;;;;;;;-2.63;96.07;102123.69;4974065;28;20486;-69
2023/02/27 01:15:08;;;;;;;8.17;3.10;;;;;;;-2.68;95.96;102128.69;4973844;28;20442;-69
2023/02/27 01:17:35;;;;;;;13.77;3.90;;;;;;;-2.59;95.41;102117.03;4973801;28;21002;-69
2023/02/27 01:20:03;;;;;;;10.40;3.37;;;;;;;-2.54;95.56;102117.31;4974167;28;20453;-69
2023/02/27 01:22:31;;;;;;;12.73;4.00;;;;;;;-2.63;95.45;102121.84;4974060;28;20462;-69
2023/02/27 01:24:58;;;;;;;7.80;3.40;;;;;;;-2.64;95.18;102117.56;4977686;28;20458;-69
2023/02/27 01:27:24;;;;;;;6.93;3.10;;;;;;;-2.61;96.17;102113.75;4977785;28;20544;-68
2023/02/27 01:29:51;;;;;;;8.53;2.93;;;;;;;-2.71;95.38;102111.28;4977671;28;20799;-69
2023/02/27 01:32:18;;;;;;;12.23;4.10;;;;;;;-2.64;96.84;102116.75;4977577;28;20525;-69
2023/02/27 01:34:44;;;;;;;10.57;3.87;;;;;;;-2.54;97.33;102118.16;4977582;28;20480;-68
2023/02/27 01:37:12;;;;;;;13.00;3.87;;;;;;;-2.54;96.62;102112.03;4977504;28;20458;-68
2023/02/27 01:39:39;;;;;;;13.13;4.20;;;;;;;-2.61;97.09;102111.91;4977395;28;20452;-69
2023/02/27 01:42:16;;;;;;;10.00;3.60;;;;;;;-2.64;97.66;102111.44;4977548;28;20466;-69
2023/02/27 01:45:07;;;;;;;13.23;4.17;;;;;;;-2.67;98.14;102115.25;4977640;28;20428;-69
2023/02/27 01:47:35;;;;;;;14.23;4.27;;;;;;;-2.70;96.80;102106.81;4977156;28;20883;-69
2023/02/27 01:50:01;;;;;;;8.67;3.53;;;;;;;-2.61;96.16;102111.09;4977371;28;20446;-69
2023/02/27 01:52:31;;;;;;;11.27;3.70;;;;;;;-2.52;95.99;102115.34;4976986;28;21026;-69
2023/02/27 01:54:58;;;;;;;12.93;4.43;;;;;;;-2.61;95.53;102117.22;4977298;28;20821;-69
2023/02/27 01:57:25;;;;;;;7.83;3.33;;;;;;;-2.79;95.41;102119.28;4977238;28;20450;-69
2023/02/27 01:59:52;;;;;;;10.60;3.93;;;;;;;-2.74;95.63;102119.63;4976908;28;20591;-69
2023/02/27 02:02:25;;;;;;;11.97;3.80;;;;;;;-2.74;95.29;102116.16;4977125;28;20545;-68
2023/02/27 02:04:54;;;;;;;9.37;3.27;;;;;;;-2.69;95.44;102114.63;4977066;28;20888;-69
2023/02/27 02:07:24;;;;;;;10.50;4.00;;;;;;;-2.74;96.69;102122.28;4976976;28;20446;-69
2023/02/27 02:09:54;;;;;;;9.83;3.23;;;;;;;-2.76;97.37;102118.94;4976983;28;20544;-69
2023/02/27 02:12:25;;;;;;;8.93;3.77;;;;;;;-2.74;97.87;102118.81;4976512;28;20552;-68
2023/02/27 02:14:51;;;;;;;12.20;4.20;;;;;;;-2.75;98.15;102119.78;4976611;28;20914;-68
2023/02/27 02:17:27;;;;;;;8.73;3.60;;;;;;;-2.92;98.54;102109.28;4976582;28;20437;-69
2023/02/27 02:20:33;;;;;;;14.10;3.77;;;;;;;-2.75;98.20;102114.47;4976877;28;20441;-70
2023/02/27 02:23:29;;;;;;;14.73;4.23;;;;;;;-2.69;97.05;102124.41;4976809;28;20449;-69
2023/02/27 02:26:30;;;;;;;9.63;3.47;;;;;;;-2.78;97.86;102113.00;4976391;28;20521;-70
2023/02/27 02:29:35;;;;;;;11.97;4.77;;;;;;;-2.86;97.66;102102.44;4976649;28;20436;-69
2023/02/27 02:32:37;;;;;;;11.80;3.90;;;;;;;-2.91;98.71;102115.41;4976147;28;21018;-68
2023/02/27 02:35:44;;;;;;;14.63;5.47;;;;;;;-2.98;99.25;102111.78;4975549;28;20440;-69
2023/02/27 02:38:44;;;;;;;11.83;4.20;;;;;;;-2.97;98.73;102116.09;4943769;28;20540;-70
2023/02/27 02:41:19;;;;;;;13.10;5.73;;;;;;;-3.01;98.19;102110.34;4975803;28;21073;-70
2023/02/27 02:43:55;;;;;;;13.37;5.07;;;;;;;-2.96;97.86;102115.09;4976412;28;20779;-69
2023/02/27 02:46:30;;;;;;;14.17;5.13;;;;;;;-2.82;95.77;102125.78;4976067;28;20516;-69
2023/02/27 02:49:05;;;;;;;10.27;4.77;;;;;;;-2.84;95.27;102122.47;4976338;28;20792;-70
2023/02/27 02:51:38;;;;;;;14.07;5.03;;;;;;;-2.83;95.57;102129.44;4976135;28;20513;-69
2023/02/27 02:54:11;;;;;;;12.67;5.00;;;;;;;-2.90;95.93;102127.66;4976252;28;20850;-69
2023/02/27 02:56:42;;;;;;;9.60;4.50;;;;;;;-2.86;96.57;102128.97;4976138;28;20438;-70
2023/02/27 02:59:16;;;;;;;13.90;4.90;;;;;;;-2.85;96.51;102128.78;4975779;28;20433;-69
2023/02/27 03:01:47;;;;;;;11.47;4.40;;;;;;;-2.84;95.91;102132.25;4974698;28;20474;-69
2023/02/27 03:04:19;;;;;;;12.40;4.60;;;;;;;-2.94;95.16;102135.13;4975065;28;20426;-70
2023/02/27 03:06:50;;;;;;;16.30;5.67;;;;;;;-3.08;95.01;102131.38;4975037;28;20532;-70
2023/02/27 03:09:23;;;;;;;8.67;4.33;;;;;;;-3.25;94.86;102131.63;4974717;28;20803;-69
2023/02/27 03:11:53;;;;;;;13.10;4.80;;;;;;;-3.34;95.86;102130.81;4974565;28;20489;-69
2023/02/27 03:14:27;;;;;;;17.83;4.93;;;;;;;-3.35;95.85;102137.94;4974829;28;20450;-69
2023/02/27 03:16:59;;;;;;;11.47;5.13;;;;;;;-3.31;95.87;102139.25;4974959;28;20444;-69
2023/02/27 03:19:29;;;;;;;6.83;3.47;;;;;;;-3.35;96.12;102145.88;4974817;28;20525;-70
2023/02/27 03:22:01;;;;;;;11.53;4.00;;;;;;;-3.24;96.17;102141.22;4974390;28;20484;-69
2023/02/27 03:24:34;;;;;;;12.37;6.20;;;;;;;-3.23;95.73;102145.50;4974512;28;20432;-70
2023/02/27 03:27:03;;;;;;;9.00;4.57;;;;;;;-3.24;94.69;102157.09;4974771;28;20877;-69
2023/02/27 03:29:37;;;;;;;8.37;3.90;;;;;;;-3.23;94.22;102154.31;4974633;28;20473;-69
2023/02/27 03:32:11;;;;;;;8.43;3.60;;;;;;;-3.23;95.25;102151.66;4974439;28;20496;-69
2023/02/27 03:34:39;;;;;;;8.03;3.33;;;;;;;-3.19;94.96;102152.94;4974607;28;20458;-69
2023/02/27 03:37:17;;;;;;;10.43;4.33;;;;;;;-3.14;95.64;102147.97;4974112;28;20939;-69
2023/02/27 03:39:47;;;;;;;12.67;4.00;;;;;;;-3.04;95.71;102153.06;4974283;28;20440;-70
2023/02/27 03:42:23;;;;;;;9.67;4.40;;;;;;;-3.07;94.96;102156.06;4973948;28;20849;-70
2023/02/27 03:44:58;;;;;;;8.20;3.23;;;;;;;-3.05;93.59;102156.72;4974081;28;20924;-70
2023/02/27 03:47:25;;;;;;;11.20;4.20;;;;;;;-3.02;94.98;102169.63;4974164;28;20521;-69
2023/02/27 03:49:51;;;;;;;8.10;3.07;;;;;;;-3.09;96.30;102164.19;4973812;28;20965;-69
2023/02/27 03:52:19;;;;;;;10.37;3.77;;;;;;;-3.27;96.80;102168.06;4974149;28;20490;-69
2023/02/27 03:54:53;;;;;;;8.27;2.90;;;;;;;-3.27;96.86;102179.50;4973944;28;20485;-70
2023/02/27 03:57:20;;;;;;;6.80;2.80;;;;;;;-3.27;96.62;102176.84;4974268;28;20488;-69
2023/02/27 03:59:47;;;;;;;7.13;2.50;;;;;;;-3.24;96.04;102175.66;4971705;23;1111287;-64
2023/02/27 04:02:14;;;;;;;8.73;3.30;;;;;;;-3.23;96.33;102179.94;5013796;28;20626;-64
2023/02/27 04:04:40;;;;;;;7.10;2.63;;;;;;;-3.19;95.79;102183.91;5014140;28;20820;-64
2023/02/27 04:07:24;;;;;;;6.90;2.37;;;;;;;-3.21;96.28;102180.63;5013544;28;20442;-64
2023/02/27 04:10:14;;;;;;;8.37;3.10;;;;;;;-3.31;95.15;102179.00;5013765;28;20451;-66
2023/02/27 04:13:08;;;;;;;7.07;2.60;;;;;;;-3.44;95.38;102191.13;5013729;28;20500;-64
2023/02/27 04:15:53;;;;;;;6.20;2.30;;;;;;;-3.35;96.48;102193.56;5013398;28;20980;-64
2023/02/27 04:18:34;;;;;;;6.47;2.10;;;;;;;-3.24;96.29;102188.91;5013365;28;20432;-64
2023/02/27 04:21:09;;;;;;;10.17;2.63;;;;;;;-3.29;97.36;102194.72;5013306;28;20935;-65
2023/02/27 04:23:41;;;;;;;6.33;2.30;;;;;;;-3.32;97.73;102195.91;5013310;28;20430;-64
2023/02/27 04:26:20;;;;;;;12.07;3.03;;;;;;;-3.35;97.27;102198.88;5013291;28;20441;-65
2023/02/27 04:28:58;;;;;;;6.57;2.37;;;;;;;-3.39;97.75;102197.56;5013191;28;20469;-64
2023/02/27 04:31:30;;;;;;;6.03;1.67;;;;;;;-3.36;97.73;102199.06;5013232;28;20467;-64
2023/02/27 04:34:01;;;;;;;6.70;2.57;;;;;;;-3.24;97.42;102202.16;5013341;28;20482;-65
2023/02/27 04:36:33;;;;;;;6.60;1.83;;;;;;;-3.24;96.98;102199.50;5013512;28;20420;-64
2023/02/27 04:39:04;;;;;;;8.60;2.27;;;;;;;-3.30;97.49;102196.53;5013330;28;20478;-64
2023/02/27 04:41:38;;;;;;;6.63;2.53;;;;;;;-3.24;97.12;102199.50;5013458;28;20432;-64
2023/02/27 04:44:07;;;;;;;8.27;2.17;;;;;;;-3.41;97.45;102201.34;5013097;28;20433;-64
2023/02/27 04:46:37;;;;;;;6.17;2.20;;;;;;;-3.40;99.03;102211.81;5013013;28;20868;-63
2023/02/27 04:49:08;;;;;;;7.67;2.70;;;;;;;-3.31;97.78;102205.50;5013231;28;20470;-64
2023/02/27 04:51:42;;;;;;;8.80;2.80;;;;;;;-3.41;97.56;102212.81;5013029;28;20431;-65
2023/02/27 04:54:12;;;;;;;7.57;2.73;;;;;;;-3.35;98.23;102221.88;5013320;28;20468;-66
2023/02/27 04:56:44;;;;;;;7.13;2.50;;;;;;;-3.27;97.90;102210.47;5013283;28;20450;-65
2023/02/27 04:59:16;;;;;;;7.00;2.67;;;;;;;-3.40;96.97;102219.75;5015686;28;20468;-65
2023/02/27 05:01:52;;;;;;;10.60;3.73;;;;;;;-3.49;95.68;102219.94;5016963;28;20424;-65
2023/02/27 05:04:22;;;;;;;10.90;4.50;;;;;;;-3.37;97.90;102215.91;5017163;28;20470;-65
2023/02/27 05:06:50;;;;;;;11.53;5.43;;;;;;;-3.38;97.55;102207.16;5017092;28;20439;-65
2023/02/27 05:09:23;;;;;;;10.40;4.93;;;;;;;-3.36;97.13;102207.81;5016955;28;20475;-64
2023/02/27 05:11:56;;;;;;;11.97;5.80;;;;;;;-3.39;97.16;102204.69;5016710;28;20426;-65
2023/02/27 05:14:30;;;;;;;9.33;4.47;;;;;;;-3.33;99.01;102204.81;5016997;28;20511;-65
2023/02/27 05:17:03;;;;;;;11.47;3.83;;;;;;;-3.24;98.30;102202.16;5016949;28;20460;-65
2023/02/27 05:19:30;;;;;;;15.90;5.40;;;;;;;-3.19;97.12;102208.59;5016508;28;20976;-65
2023/02/27 05:22:05;;;;;;;13.77;5.33;;;;;;;-3.37;96.08;102206.16;5016517;28;20979;-66
2023/02/27 05:24:39;;;;;;;21.47;7.10;;;;;;;-3.36;96.23;102207.00;5016595;28;20896;-65
2023/02/27 05:27:17;;;;;;;11.17;5.20;;;;;;;-3.26;96.23;102212.09;5016468;28;20819;-65
2023/02/27 05:29:48;;;;;;;12.53;5.57;;;;;;;-3.22;96.35;102214.25;5016719;28;20473;-65
2023/02/27 05:32:26;;;;;;;12.07;5.40;;;;;;;-3.30;95.44;102211.59;5016636;28;20432;-65
2023/02/27 05:34:58;;;;;;;11.43;4.33;;;;;;;-3.52;96.01;102215.78;5016319;28;20424;-66
2023/02/27 05:37:30;;;;;;;12.97;5.87;;;;;;;-3.46;95.75;102212.44;5016616;28;20435;-65
2023/02/27 05:40:05;;;;;;;10.43;5.30;;;;;;;-3.48;96.38;102222.41;5016406;28;20470;-66
2023/02/27 05:42:40;;;;;;;15.57;5.77;;;;;;;-3.52;96.03;102223.72;5016620;28;20514;-65
2023/02/27 05:45:10;;;;;;;11.27;5.27;;;;;;;-3.66;95.72;102230.53;5016362;28;20455;-66
2023/02/27 05:47:43;;;;;;;11.07;4.43;;;;;;;-3.61;95.44;102235.31;5016435;28;20872;-66
2023/02/27 05:50:13;;;;;;;14.87;5.00;;;;;;;-3.66;95.44;102235.81;5016162;28;20491;-65
2023/02/27 05:52:41;;;;;;;11.33;4.83;;;;;;;-3.63;95.33;102239.94;5016089;28;20865;-65
2023/02/27 05:55:14;;;;;;;12.83;4.77;;;;;;;-3.66;94.81;102243.78;5016157;28;20812;-66
2023/02/27 05:57:45;;;;;;;11.70;4.33;;;;;;;-3.66;94.70;102256.19;5016159;28;20428;-66
2023/02/27 06:00:16;;;;;;;7.90;3.30;;;;;;;-3.47;94.10;102253.19;5015706;28;20542;-65
2023/02/27 06:02:44;;;;;;;14.23;4.70;;;;;;;-3.48;96.49;102250.72;5016387;28;20520;-66
2023/02/27 06:05:13;;;;;;;6.60;2.73;;;;;;;-3.48;96.63;102250.72;5016102;28;20518;-66
2023/02/27 06:07:39;;;;;;;8.47;3.60;;;;;;;-3.44;96.48;102246.72;5015897;28;20531;-66
2023/02/27 06:10:07;;;;;;;7.97;3.53;;;;;;;-3.53;94.42;102253.84;5015480;28;20466;-66
2023/02/27 06:12:33;;;;;;;12.13;4.33;;;;;;;-3.74;95.42;102267.59;5015836;28;20483;-67
2023/02/27 06:15:01;;;;;;;12.47;5.43;;;;;;;-3.70;97.01;102263.63;5015828;28;20551;-69
2023/02/27 06:17:28;;;;;;;19.07;4.60;;;;;;;-3.59;97.03;102267.75;5015763;28;20444;-64
2023/02/27 06:19:54;;;;;;;11.80;4.20;;;;;;;-3.38;96.80;102265.41;5015646;28;20839;-65
2023/02/27 06:22:21;;;;;;;8.93;4.10;;;;;;;-3.39;96.50;102271.72;5015669;28;20446;-65
2023/02/27 06:24:48;;;;;;;13.43;5.20;;;;;;;-3.34;96.97;102266.75;5015846;28;20513;-68
2023/02/27 06:27:14;;;;;;;11.97;4.50;;;;;;;-3.34;97.97;102266.75;5015879;28;20563;-66
2023/02/27 06:29:41;;;;;;;12.93;4.80;;;;;;;-3.18;97.16;102273.03;5015536;28;20464;-66
2023/02/27 06:32:09;;;;;;;15.00;5.23;;;;;;;-3.37;95.29;102280.31;5015201;28;20952;-67
2023/02/27 06:34:35;;;;;;;11.67;4.73;;;;;;;-3.44;95.61;102275.88;5015364;28;20585;-66
2023/02/27 06:37:02;;;;;;;16.90;4.27;;;;;;;-3.47;96.95;102277.00;5015349;28;20450;-65
2023/02/27 06:39:28;;;;;;;16.70;4.77;;;;;;;-3.49;95.89;102276.38;5014997;28;21005;-66
2023/02/27 06:41:55;;;;;;;11.37;4.33;;;;;;;-3.55;95.90;102287.59;5014944;28;20506;-66
2023/02/27 06:44:22;;;;;;;11.63;5.30;;;;;;;-3.64;96.71;102289.44;5015296;28;20483;-66
2023/02/27 06:46:48;;;;;;;10.37;4.43;;;;;;;-3.70;98.41;102281.31;5015251;28;20487;-66
2023/02/27 06:49:17;;;;;;;13.00;5.60;;;;;;;-3.59;97.75;102292.41;5014794;28;20454;-66
2023/02/27 06:51:44;;;;;;;12.20;4.20;;;;;;;-3.45;96.90;102287.44;5014826;28;20538;-66
2023/02/27 06:54:11;;;;;;;11.10;4.17;;;;;;;-3.36;96.81;102291.75;5015021;28;20524;-65
2023/02/27 06:56:37;;;;;;;10.87;4.67;;;;;;;-3.39;97.65;102295.56;5015011;28;20443;-66
2023/02/27 06:59:04;;;;;;;10.90;3.67;;;;;;;-3.33;98.26;102296.72;5014686;28;20520;-67
2023/02/27 07:01:30;;;;;;;10.83;4.07;;;;;;;-3.26;97.62;102286.28;5014977;28;20424;-66
2023/02/27 07:03:57;;;;;;;13.00;4.40;;;;;;;-3.26;97.54;102291.59;5014860;28;20444;-67
2023/02/27 07:06:25;;;;;;;16.57;5.27;;;;;;;-3.22;98.73;102288.44;5014647;28;20493;-66
2023/02/27 07:08:51;;;;;;;8.63;3.13;;;;;;;-3.04;97.84;102298.84;5014711;28;20551;-67
2023/02/27 07:11:18;;;;;;;10.20;3.50;;;;;;;-3.07;98.72;102304.47;5014840;28;20535;-66
2023/02/27 07:13:45;;;;;;;12.27;3.60;;;;;;;-2.90;98.38;102314.03;5014384;28;20489;-66
2023/02/27 07:16:12;;;;;;;9.47;3.20;;;;;;;-2.86;99.11;102315.34;5014736;28;20872;-65
2023/02/27 07:18:38;;;;;;;7.50;2.83;;;;;;;-2.84;99.92;102326.59;5014624;28;20442;-66
2023/02/27 07:21:05;;;;;;;10.40;3.50;;;;;;;-2.60;99.67;102335.53;5014004;28;20446;-66
2023/02/27 07:23:34;;;;;;;9.10;3.53;;;;;;;-2.40;99.26;102350.03;5014547;28;20451;-65
2023/02/27 07:26:00;;;;;;;8.30;3.10;;;;;;;-2.29;99.34;102349.66;5014519;28;20506;-66
2023/02/27 07:28:27;;;;;;;9.07;3.13;;;;;;;-2.16;98.48;102353.59;5014342;28;20458;-64
2023/02/27 07:30:55;;;;;;;7.90;2.93;;;;;;;-2.13;98.72;102346.09;5014095;28;20440;-66
2023/02/27 07:33:22;;;;;;;7.77;2.87;;;;;;;-2.08;99.48;102340.25;5014010;28;20490;-64
2023/02/27 07:35:49;;;;;;;9.10;1.87;;;;;;;-1.89;98.19;102339.84;5014286;28;20452;-66
2023/02/27 07:38:17;;;;;;;6.33;2.00;;;;;;;-1.85;97.61;102341.16;5014239;28;20459;-66
2023/02/27 07:40:45;;;;;;;7.90;2.33;;;;;;;-1.75;97.52;102348.88;5014258;28;20464;-65
2023/02/27 07:43:12;;;;;;;11.03;2.13;;;;;;;-1.85;96.36;102351.78;5013915;28;20446;-66
2023/02/27 07:45:39;;;;;;;7.57;2.43;;;;;;;-1.85;96.56;102356.25;5014121;28;20829;-65
2023/02/27 07:48:06;;;;;;;6.50;1.87;;;;;;;-1.70;96.44;102358.97;5013800;28;20440;-66
2023/02/27 07:50:32;;;;;;;6.50;2.57;;;;;;;-1.60;95.70;102356.91;5013994;28;20460;-66
2023/02/27 07:52:59;;;;;;;9.50;2.93;;;;;;;-1.46;94.96;102357.97;5013590;28;20900;-65
2023/02/27 07:55:26;;;;;;;7.27;2.50;;;;;;;-1.36;95.29;102359.41;5013980;28;20472;-65
2023/02/27 07:57:53;;;;;;;6.80;2.40;;;;;;;-1.13;95.08;102361.22;5013960;28;20436;-67
2023/02/27 08:00:21;;;;;;;7.07;2.30;;;;;;;-1.11;95.58;102361.84;5013521;28;20583;-65
2023/02/27 08:02:47;;;;;;;9.40;2.10;;;;;;;-0.94;94.85;102363.34;5013874;28;20483;-65
2023/02/27 08:05:14;;;;;;;10.60;2.43;;;;;;;-0.77;94.49;102359.53;5013530;28;20956;-65
2023/02/27 08:07:41;;;;;;;7.60;2.40;;;;;;;-0.64;94.08;102360.75;5013773;28;20475;-65
2023/02/27 08:10:09;;;;;;;6.47;1.97;;;;;;;-0.68;94.51;102362.13;5013753;28;20551;-65
2023/02/27 08:12:36;;;;;;;5.50;1.90;;;;;;;-0.56;93.89;102363.31;5013473;28;20527;-63
2023/02/27 08:15:04;;;;;;;6.03;1.73;;;;;;;-0.64;94.89;102356.25;5013334;28;20676;-67
2023/02/27 08:17:31;;;;;;;6.17;1.90;;;;;;;-0.50;94.95;102362.59;5013376;28;20534;-65
2023/02/27 08:19:58;;;;;;;9.10;2.47;;;;;;;-0.50;94.45;102373.22;5013536;28;20491;-65
2023/02/27 08:22:24;;;;;;;6.20;2.03;;;;;;;-0.46;95.18;102363.03;5013497;28;21029;-66
2023/02/27 08:24:51;;;;;;;7.77;1.73;;;;;;;-0.28;94.77;102364.31;5013332;28;20522;-69
2023/02/27 08:27:17;;;;;;;10.07;2.50;;;;;;;-0.11;94.26;102372.09;5013253;28;20932;-70
2023/02/27 08:29:45;;;;;;;7.40;1.77;;;;;;;-0.03;94.02;102377.34;5013150;28;20542;-66
2023/02/27 08:32:13;;;;;;;6.03;1.90;;;;;;;0.03;94.37;102383.75;5012943;28;20467;-64
2023/02/27 08:34:39;;;;;;;7.57;3.00;;;;;;;0.05;94.93;102385.22;5012997;28;20476;-64
2023/02/27 08:37:06;;;;;;;8.80;2.80;;;;;;;0.04;95.13;102386.22;5013363;28;20452;-64
2023/02/27 08:39:32;;;;;;;6.43;2.03;;;;;;;0.17;95.92;102381.03;5013291;28;20470;-64
2023/02/27 08:41:59;;;;;;;6.37;2.27;;;;;;;0.29;95.19;102388.56;5013347;28;20884;-66
2023/02/27 08:44:26;;;;;;;6.17;1.70;;;;;;;0.46;94.33;102388.16;5013309;28;20472;-66
2023/02/27 08:46:52;;;;;;;7.83;2.20;;;;;;;0.49;94.01;102384.28;5013402;28;20448;-66
2023/02/27 08:49:23;;;;;;;5.50;1.50;;;;;;;0.62;94.39;102379.09;5012960;28;20460;-65
2023/02/27 08:51:50;;;;;;;6.90;2.10;;;;;;;0.74;93.72;102379.38;5013371;28;20823;-66
2023/02/27 08:54:17;;;;;;;5.73;1.67;;;;;;;0.89;93.41;102382.81;5013079;28;20493;-66
2023/02/27 08:56:43;;;;;;;7.97;2.70;;;;;;;1.06;93.16;102385.19;5012972;28;20973;-66
2023/02/27 08:59:10;;;;;;;8.23;2.13;;;;;;;1.03;93.72;102388.28;5012717;28;20476;-67
2023/02/27 09:01:37;;;;;;;6.87;2.07;;;;;;;1.16;93.52;102381.19;5012923;28;20539;-66
2023/02/27 09:04:05;;;;;;;6.90;2.43;;;;;;;1.26;93.69;102386.19;5013226;28;20444;-67
2023/02/27 09:06:35;;;;;;;8.03;2.23;;;;;;;1.38;93.61;102389.16;5013071;28;20821;-65
2023/02/27 09:09:03;;;;;;;6.60;1.60;;;;;;;1.52;93.13;102380.19;5013471;28;20829;-67
2023/02/27 09:11:30;;;;;;;6.70;2.50;;;;;;;1.62;92.74;102382.50;5013022;28;20444;-67
2023/02/27 09:13:57;;;;;;;6.20;2.40;;;;;;;1.70;92.42;102380.50;5012575;28;21074;-68
2023/02/27 09:16:25;;;;;;;7.20;2.30;;;;;;;1.80;92.11;102387.31;5013106;28;20909;-66
2023/02/27 09:18:51;;;;;;;9.73;2.60;;;;;;;1.90;91.93;102388.59;5012950;28;20452;-67
2023/02/27 09:21:19;;;;;;;8.60;2.60;;;;;;;1.93;91.67;102382.88;5012661;28;20884;-66
2023/02/27 09:23:47;;;;;;;15.10;2.87;;;;;;;1.95;92.03;102383.50;5013007;28;20868;-66
2023/02/27 09:26:14;;;;;;;8.10;2.47;;;;;;;2.11;92.00;102390.34;5012718;28;20487;-66
2023/02/27 09:28:41;;;;;;;7.57;2.40;;;;;;;2.26;91.46;102392.88;5012900;28;20455;-66
2023/02/27 09:31:08;;;;;;;8.53;3.03;;;;;;;2.27;90.96;102400.69;5012866;28;20450;-66
2023/02/27 09:33:37;;;;;;;7.53;2.17;;;;;;;2.38;91.07;102396.59;5012761;28;20447;-65
2023/02/27 09:36:05;;;;;;;7.17;2.43;;;;;;;2.50;90.46;102405.69;5012529;28;20444;-65
2023/02/27 09:38:31;;;;;;;8.47;2.77;;;;;;;2.59;89.93;102414.34;5012890;28;20819;-65
2023/02/27 09:41:00;;;;;;;6.60;2.50;;;;;;;2.75;89.52;102411.31;5012510;28;20535;-66
2023/02/27 09:43:34;;;;;;;12.67;2.60;;;;;;;2.82;88.78;102413.16;5012803;28;20479;-65
2023/02/27 09:46:01;;;;;;;7.90;2.67;;;;;;;2.86;88.12;102409.88;5016362;28;20428;-65
2023/02/27 09:48:31;;;;;;;6.97;2.37;;;;;;;2.95;87.68;102408.63;5016079;28;20439;-66
2023/02/27 09:50:59;;;;;;;15.40;2.63;;;;;;;3.06;87.71;102415.25;5016618;28;20432;-65
2023/02/27 09:53:30;;;;;;;7.33;2.53;;;;;;;3.20;86.88;102400.81;5015820;28;20948;-65
2023/02/27 09:56:06;;;;;;;9.17;2.53;;;;;;;3.38;86.16;102402.88;5015853;28;20432;-66
2023/02/27 09:58:44;;;;;;;6.43;2.43;;;;;;;3.49;86.02;102404.88;5016110;28;20446;-66
2023/02/27 10:01:16;;;;;;;8.03;2.80;;;;;;;3.61;85.31;102410.44;5016037;28;20434;-66
2023/02/27 10:04:39;;;;;;;6.50;2.50;;;;;;;3.72;84.38;102409.81;5015831;28;20462;-66
2023/02/27 10:07:15;;;;;;;15.47;2.40;;;;;;;3.81;82.08;102421.13;4915046;29;20503;-67
2023/02/27 10:09:52;;;;;;;6.80;2.10;;;;;;;3.92;81.10;102416.97;4937430;29;20574;-65
2023/02/27 10:12:41;;;;;;;6.50;2.00;;;;;;;4.03;81.16;102416.31;4936211;29;20438;-65
2023/02/27 10:15:15;;;;;;;9.13;2.10;;;;;;;3.98;79.94;102421.47;4936157;29;21031;-65
2023/02/27 10:17:47;;;;;;;6.50;1.90;;;;;;;4.09;80.05;102431.56;4936135;29;20434;-65
2023/02/27 10:20:23;;;;;;;10.40;1.70;;;;;;;4.17;80.43;102433.19;4936115;29;20571;-65
2023/02/27 10:22:52;;;;;;;5.60;1.90;;;;;;;4.23;80.64;102432.31;4935997;29;20538;-65
2023/02/27 10:25:20;;;;;;;9.00;2.60;;;;;;;4.17;79.38;102434.00;4936025;29;20447;-66
2023/02/27 10:27:50;;;;;;;5.80;2.00;;;;;;;4.26;78.63;102432.72;4935851;29;20527;-65
2023/02/27 10:30:21;;;;;;;6.40;1.80;;;;;;;4.27;77.99;102418.25;4935741;29;20464;-64
2023/02/27 10:32:50;;;;;;;9.83;2.30;;;;;;;4.37;77.20;102428.53;4935835;29;20527;-66
2023/02/27 10:35:28;;;;;;;6.43;2.10;;;;;;;4.50;75.88;102433.00;4935680;29;20543;-67
2023/02/27 10:37:59;;;;;;;7.23;2.37;;;;;;;4.64;75.85;102429.22;4935657;29;20438;-65
2023/02/27 10:40:27;;;;;;;7.17;1.97;;;;;;;4.79;74.67;102429.75;4948564;28;20460;-65
2023/02/27 10:42:56;;;;;;;7.60;2.10;;;;;;;4.76;71.39;102432.84;5016011;28;20440;-66
2023/02/27 10:45:23;;;;;;;7.00;2.80;;;;;;;4.84;72.71;102447.88;5015620;28;20866;-65
2023/02/27 10:47:49;;;;;;;7.17;2.40;;;;;;;4.93;71.50;102441.22;5015452;28;20471;-65
2023/02/27 10:50:26;;;;;;;7.63;2.13;;;;;;;4.98;71.74;102440.56;5015549;28;20463;-66
2023/02/27 10:52:54;;;;;;;7.57;2.07;;;;;;;5.14;71.55;102445.41;5015299;28;20443;-66
2023/02/27 10:55:25;;;;;;;9.20;2.73;;;;;;;5.28;71.07;102441.56;5014443;28;20472;-66
2023/02/27 10:57:54;;;;;;;6.40;1.90;;;;;;;5.27;70.24;102450.69;5015353;28;20830;-68
2023/02/27 11:00:33;;;;;;;6.77;2.03;;;;;;;5.28;68.96;102446.94;5014671;28;20483;-66
2023/02/27 11:03:01;;;;;;;6.70;2.60;;;;;;;5.43;68.14;102443.91;5014700;28;20913;-67
2023/02/27 11:05:32;;;;;;;6.60;2.30;;;;;;;5.63;67.80;102446.44;5014725;28;20635;-66
2023/02/27 11:08:13;;;;;;;7.80;2.37;;;;;;;5.75;66.83;102458.06;5015031;28;20445;-67
2023/02/27 11:10:58;;;;;;;7.10;2.27;;;;;;;5.93;65.79;102443.03;5014548;28;20981;-65
2023/02/27 11:13:27;;;;;;;6.80;2.10;;;;;;;6.11;65.41;102451.13;5014942;28;20456;-66
2023/02/27 11:16:11;;;;;;;7.77;2.57;;;;;;;6.19;64.05;102455.34;5014302;28;20911;-66
2023/02/27 11:18:39;;;;;;;7.43;2.10;;;;;;;6.28;64.26;102446.75;5014682;28;20436;-70
2023/02/27 11:21:15;;;;;;;7.17;2.27;;;;;;;6.18;63.46;102445.66;5014748;28;20454;-68
2023/02/27 11:23:51;;;;;;;7.93;2.80;;;;;;;6.51;63.60;102442.56;5014357;28;20866;-66
2023/02/27 11:26:22;;;;;;;12.33;2.30;;;;;;;6.67;60.54;102441.88;5014475;28;20511;-67
2023/02/27 11:29:04;;;;;;;8.07;1.83;;;;;;;7.04;60.96;102439.91;5014137;28;20495;-67
2023/02/27 11:31:34;;;;;;;5.93;1.67;;;;;;;7.26;60.55;102442.88;5014198;28;20523;-67
2023/02/27 11:34:00;;;;;;;6.00;1.53;;;;;;;7.67;58.04;102445.69;5014358;28;20483;-67
2023/02/27 11:36:39;;;;;;;11.93;2.20;;;;;;;8.21;56.15;102440.91;5014342;28;20554;-67
2023/02/27 11:39:06;;;;;;;7.40;2.10;;;;;;;8.67;51.15;102449.91;5014409;28;20468;-67
2023/02/27 11:41:34;;;;;;;6.53;1.63;;;;;;;9.28;50.10;102443.69;5014138;28;20440;-70